Acton, Maine
Current Conditions -  °F | °C
As of 12:55 PM on Friday 21 Nov 2014 (Local Time) from KSFM Reporting Station
Few Clouds Few Clouds  
Wind Chill: 17°   Ceiling: Unl
Heat Index: 30°   Visibility: 10mi
Dew Point:   Wind: 22mph
Humidity: 37%   Direction: 280°W
Pressure: 30.08"   Gusts: 29mph
Location:  43.53°N, 70.91°W
Report Text: KSFM 211755Z AUTO 28019G25KT 10SM FEW045 M01/M14 A3008 RMK AO1 10000 21040 52020
Loading
Personal Weather Stations






























Interactive Weather Map New forecast layout! Learn more

10-Day Weather Forecast

Advertisements
Track Severe Weather on mobile